Time;durP1;ratioP1;P1;durP2;ratioP2;P2;SDS_P1;SDS_P2;PMS_P1;PMS_P2;Temp;Humidity;BMP_temperature;BMP_pressure;BME280_temperature;BME280_humidity;BME280_pressure;Samples;Min_cycle;Max_cycle;Signal;HPM_P1;HPM_P2
2023/12/05 00:02:01;;;;;;;30.48;13.15;;;0.30;99.90;;;;;;4987303;28;20109;-71
2023/12/05 00:04:27;;;;;;;33.05;12.68;;;0.40;99.90;;;;;;4985125;28;20386;-71
2023/12/05 00:06:53;;;;;;;30.23;12.02;;;0.50;99.90;;;;;;4975588;28;20046;-71
2023/12/05 00:09:19;;;;;;;32.85;12.73;;;0.60;99.90;;;;;;4988407;28;20041;-71
2023/12/05 00:11:46;;;;;;;27.02;11.77;;;0.50;99.90;;;;;;4976526;28;20442;-71
2023/12/05 00:14:12;;;;;;;30.90;11.65;;;0.60;99.70;;;;;;4988536;28;20021;-71
2023/12/05 00:16:38;;;;;;;31.83;15.07;;;0.70;99.70;;;;;;4982629;28;20453;-71
2023/12/05 00:19:05;;;;;;;27.02;11.55;;;0.70;99.60;;;;;;4990843;28;20384;-71
2023/12/05 00:21:31;;;;;;;32.53;11.98;;;0.60;99.50;;;;;;4978642;28;20045;-71
2023/12/05 00:23:57;;;;;;;30.40;12.48;;;0.60;99.50;;;;;;4984444;28;20030;-72
2023/12/05 00:26:23;;;;;;;30.35;12.40;;;0.60;99.70;;;;;;4981465;28;20031;-71
2023/12/05 00:28:49;;;;;;;31.67;12.85;;;0.70;99.70;;;;;;4983919;28;20038;-71
2023/12/05 00:31:15;;;;;;;32.47;13.43;;;0.70;99.30;;;;;;4981444;28;20041;-71
2023/12/05 00:33:41;;;;;;;27.52;12.30;;;0.70;99.40;;;;;;4986014;28;20507;-71
2023/12/05 00:36:07;;;;;;;34.80;12.45;;;0.80;99.40;;;;;;4980318;28;20034;-71
2023/12/05 00:38:33;;;;;;;25.80;12.15;;;0.70;99.20;;;;;;4984732;28;20253;-71
2023/12/05 00:41:00;;;;;;;30.23;13.02;;;0.70;99.30;;;;;;4980653;28;20030;-71
2023/12/05 00:43:26;;;;;;;27.15;11.55;;;0.80;99.20;;;;;;4986418;28;20061;-71
2023/12/05 00:45:52;;;;;;;31.77;13.82;;;0.70;99.30;;;;;;4980897;28;20031;-71
2023/12/05 00:48:18;;;;;;;28.30;13.10;;;0.80;99.40;;;;;;4986194;28;20111;-71
2023/12/05 00:50:44;;;;;;;30.65;13.35;;;0.70;99.00;;;;;;4981812;28;20110;-71
2023/12/05 00:53:09;;;;;;;32.80;12.63;;;0.70;99.10;;;;;;4984740;28;20793;-71
2023/12/05 00:55:36;;;;;;;30.90;12.43;;;0.70;99.20;;;;;;4985454;28;20034;-71
2023/12/05 00:58:02;;;;;;;32.45;12.30;;;0.70;99.50;;;;;;4982534;28;20030;-71
2023/12/05 01:00:27;;;;;;;30.58;12.15;;;0.50;99.50;;;;;;4984170;28;20494;-71
2023/12/05 01:02:53;;;;;;;29.67;12.75;;;0.60;99.40;;;;;;4981227;28;20030;-71
2023/12/05 01:05:19;;;;;;;32.58;12.98;;;0.50;99.40;;;;;;4986928;28;20108;-71
2023/12/05 01:07:45;;;;;;;29.33;13.13;;;0.60;99.40;;;;;;4982741;28;20083;-71
2023/12/05 01:10:11;;;;;;;30.10;12.23;;;0.60;99.40;;;;;;4986742;28;20045;-71
2023/12/05 01:12:36;;;;;;;33.45;13.88;;;0.60;99.40;;;;;;4982193;28;20524;-71
2023/12/05 01:15:02;;;;;;;29.85;12.18;;;0.50;99.50;;;;;;4985909;28;20035;-71
2023/12/05 01:17:29;;;;;;;29.13;12.52;;;0.60;99.50;;;;;;4982882;28;20037;-71
2023/12/05 01:19:56;;;;;;;24.85;11.38;;;0.50;99.60;;;;;;4985062;28;20949;-71
2023/12/05 01:22:21;;;;;;;33.55;13.48;;;0.50;99.50;;;;;;4979843;28;20108;-71
2023/12/05 01:24:55;;;;;;;31.15;12.20;;;0.50;99.60;;;;;;4983646;28;20442;-71
2023/12/05 01:27:22;;;;;;;37.05;13.27;;;0.50;99.60;;;;;;4980399;28;20504;-71
2023/12/05 01:29:48;;;;;;;31.88;13.15;;;0.50;99.70;;;;;;4981894;28;20105;-71
2023/12/05 01:32:15;;;;;;;33.60;13.73;;;0.40;99.80;;;;;;4979185;28;20046;-71
2023/12/05 01:34:42;;;;;;;33.28;12.82;;;0.40;99.90;;;;;;4984705;28;20034;-71
2023/12/05 01:37:08;;;;;;;37.13;13.70;;;0.30;99.90;;;;;;4987332;28;20041;-71
2023/12/05 01:39:34;;;;;;;29.05;12.73;;;0.20;99.90;;;;;;4983159;28;20034;-71
2023/12/05 01:42:00;;;;;;;33.20;12.98;;;0.10;99.90;;;;;;4980621;28;20170;-71
2023/12/05 01:44:26;;;;;;;30.30;11.75;;;-0.10;99.90;;;;;;4988561;28;20834;-70
2023/12/05 01:46:52;;;;;;;32.60;12.80;;;0.00;99.90;;;;;;4984005;28;20035;-71
2023/12/05 01:49:18;;;;;;;33.55;12.55;;;0.00;99.90;;;;;;4990285;28;20763;-70
2023/12/05 01:51:45;;;;;;;29.70;13.10;;;-0.10;99.90;;;;;;4984514;28;20171;-71
2023/12/05 01:54:11;;;;;;;32.22;12.55;;;-0.10;99.90;;;;;;4987816;28;20049;-70
2023/12/05 01:56:37;;;;;;;31.38;12.77;;;-0.10;99.90;;;;;;4985424;28;20483;-70
2023/12/05 01:59:04;;;;;;;33.92;13.40;;;0.10;99.90;;;;;;4985822;28;20045;-71
2023/12/05 02:01:29;;;;;;;34.53;13.13;;;0.10;99.90;;;;;;4987471;28;20121;-71
2023/12/05 02:03:57;;;;;;;32.20;13.23;;;0.20;99.90;;;;;;4983653;28;20134;-71
2023/12/05 02:06:26;;;;;;;31.92;11.77;;;0.10;99.90;;;;;;4988673;28;20121;-71
2023/12/05 02:08:53;;;;;;;30.08;13.90;;;0.00;99.90;;;;;;4983466;28;20037;-71
2023/12/05 02:11:19;;;;;;;31.17;12.98;;;0.00;99.90;;;;;;4990241;28;20045;-71
2023/12/05 02:13:47;;;;;;;33.63;12.35;;;0.00;99.90;;;;;;4984247;28;20574;-71
2023/12/05 02:16:37;;;;;;;33.55;14.18;;;0.00;99.90;;;;;;4988585;28;20085;-70
2023/12/05 02:19:22;;;;;;;31.13;13.05;;;0.10;99.90;;;;;;4985314;28;20092;-70
2023/12/05 02:21:52;;;;;;;30.63;12.38;;;0.20;99.90;;;;;;4983685;28;20027;-70
2023/12/05 02:24:21;;;;;;;34.47;13.70;;;0.20;99.90;;;;;;4989577;28;20489;-70
2023/12/05 02:27:01;;;;;;;31.98;13.95;;;0.10;99.90;;;;;;4984846;28;20030;-71
2023/12/05 02:29:27;;;;;;;29.45;13.38;;;0.20;99.90;;;;;;4987460;28;20050;-71
2023/12/05 02:31:54;;;;;;;33.17;13.85;;;0.10;99.90;;;;;;4984120;28;20098;-71
2023/12/05 02:34:20;;;;;;;34.28;12.90;;;0.20;99.90;;;;;;4989919;28;20544;-71
2023/12/05 02:37:15;;;;;;;31.60;13.20;;;0.20;99.90;;;;;;4985586;28;20034;-70
2023/12/05 02:39:52;;;;;;;35.22;14.18;;;0.20;99.90;;;;;;4991676;28;20482;-71
2023/12/05 02:42:22;;;;;;;29.50;11.80;;;0.00;99.90;;;;;;4986339;28;20118;-71
2023/12/05 02:44:51;;;;;;;30.10;12.68;;;0.00;99.90;;;;;;4982542;28;20034;-71
2023/12/05 02:47:19;;;;;;;31.90;13.35;;;0.10;99.90;;;;;;4985516;28;20397;-70
2023/12/05 02:49:46;;;;;;;30.23;13.40;;;0.00;99.90;;;;;;4982814;28;20046;-70
2023/12/05 02:52:12;;;;;;;33.50;11.98;;;-0.10;99.90;;;;;;4985445;28;20253;-70
2023/12/05 02:54:37;;;;;;;33.42;13.57;;;0.00;99.90;;;;;;4981574;28;20129;-70
2023/12/05 02:57:04;;;;;;;33.85;13.20;;;0.10;99.90;;;;;;4985602;28;20035;-70
2023/12/05 02:59:29;;;;;;;33.88;14.32;;;0.20;99.90;;;;;;4982977;28;20123;-70
2023/12/05 03:01:55;;;;;;;33.40;13.77;;;0.10;99.90;;;;;;4984739;28;20067;-70
2023/12/05 03:04:21;;;;;;;31.45;13.95;;;0.20;99.90;;;;;;4983592;28;20543;-71
2023/12/05 03:06:47;;;;;;;33.17;13.55;;;0.20;99.90;;;;;;4985804;28;20030;-70
2023/12/05 03:09:12;;;;;;;28.95;12.88;;;0.20;99.90;;;;;;4982202;28;20035;-71
2023/12/05 03:11:38;;;;;;;27.73;12.27;;;0.20;99.90;;;;;;4987405;28;20042;-70
2023/12/05 03:14:04;;;;;;;28.90;12.18;;;0.20;99.90;;;;;;4980225;28;20547;-71
2023/12/05 03:16:30;;;;;;;37.38;13.13;;;0.20;99.90;;;;;;4990069;28;20074;-71
2023/12/05 03:18:56;;;;;;;28.08;12.65;;;0.30;99.90;;;;;;4977037;28;20057;-71
2023/12/05 03:21:22;;;;;;;32.50;13.70;;;0.20;99.90;;;;;;4990847;28;20057;-70
2023/12/05 03:23:47;;;;;;;28.33;11.50;;;0.20;99.90;;;;;;4979107;28;20039;-70
2023/12/05 03:26:18;;;;;;;34.30;13.38;;;0.20;99.90;;;;;;5005963;28;20042;-71
2023/12/05 03:28:44;;;;;;;26.88;12.43;;;0.20;99.90;;;;;;4982170;28;20038;-70
2023/12/05 03:31:09;;;;;;;29.00;12.38;;;0.40;99.90;;;;;;4991092;28;20046;-70
2023/12/05 03:33:38;;;;;;;30.75;13.93;;;0.40;99.90;;;;;;4980858;28;20076;-70
2023/12/05 03:36:05;;;;;;;29.08;12.80;;;0.40;99.90;;;;;;4989281;28;20139;-71
2023/12/05 03:38:31;;;;;;;31.23;13.25;;;0.40;99.90;;;;;;4980244;28;20034;-71
2023/12/05 03:40:56;;;;;;;25.23;12.02;;;0.40;99.90;;;;;;4980516;28;20041;-70
2023/12/05 03:43:22;;;;;;;31.65;12.80;;;0.20;99.90;;;;;;4988166;28;20532;-71
2023/12/05 03:45:49;;;;;;;29.95;13.45;;;0.10;99.90;;;;;;4987035;28;20030;-70
2023/12/05 03:48:15;;;;;;;27.42;11.85;;;0.20;99.90;;;;;;4983854;28;20488;-71
2023/12/05 03:50:41;;;;;;;30.77;12.95;;;0.30;99.90;;;;;;4987266;28;20022;-70
2023/12/05 03:53:07;;;;;;;36.95;13.52;;;0.30;99.90;;;;;;4998204;28;20145;-71
2023/12/05 03:55:35;;;;;;;29.15;12.60;;;0.30;99.90;;;;;;4987824;28;20037;-70
2023/12/05 03:58:02;;;;;;;28.50;12.93;;;0.50;99.90;;;;;;4998321;28;20057;-71
2023/12/05 04:00:28;;;;;;;28.55;11.95;;;0.40;99.90;;;;;;4987005;28;20052;-71
2023/12/05 04:02:55;;;;;;;25.70;11.35;;;0.40;99.90;;;;;;4983249;28;20810;-70
2023/12/05 04:05:20;;;;;;;29.90;12.05;;;0.30;99.90;;;;;;4982300;28;20432;-71
2023/12/05 04:07:46;;;;;;;27.08;12.23;;;0.30;99.90;;;;;;4983056;28;20038;-71
2023/12/05 04:10:12;;;;;;;27.90;11.02;;;0.40;99.90;;;;;;4985023;28;20045;-71
2023/12/05 04:12:39;;;;;;;28.23;12.15;;;0.40;99.90;;;;;;4985872;28;20042;-71
2023/12/05 04:15:06;;;;;;;25.30;11.80;;;0.40;99.90;;;;;;4977253;28;20081;-71
2023/12/05 04:17:32;;;;;;;25.17;12.60;;;0.50;99.90;;;;;;4985401;28;20046;-71
2023/12/05 04:19:58;;;;;;;29.17;11.90;;;0.50;99.90;;;;;;4976854;28;20026;-71
2023/12/05 04:22:24;;;;;;;27.65;12.38;;;0.50;99.90;;;;;;4988562;28;20041;-71
2023/12/05 04:24:49;;;;;;;29.27;12.73;;;0.70;99.90;;;;;;4977220;28;20035;-71
2023/12/05 04:27:15;;;;;;;32.35;12.80;;;0.70;99.90;;;;;;4989302;28;20026;-70
2023/12/05 04:29:42;;;;;;;31.08;13.10;;;0.70;99.90;;;;;;4981663;28;20046;-71
2023/12/05 04:32:08;;;;;;;28.27;12.52;;;0.70;99.90;;;;;;4991385;28;20041;-71
2023/12/05 04:34:35;;;;;;;29.35;12.30;;;0.50;99.90;;;;;;4979452;28;20034;-70
2023/12/05 04:37:00;;;;;;;24.23;11.45;;;0.60;99.90;;;;;;4985967;28;20070;-70
2023/12/05 04:39:26;;;;;;;23.23;11.93;;;0.70;99.90;;;;;;4980625;28;20065;-71
2023/12/05 04:41:52;;;;;;;30.42;12.20;;;0.60;99.90;;;;;;4985087;28;20182;-71
2023/12/05 04:44:18;;;;;;;26.05;12.02;;;0.70;99.90;;;;;;4982665;28;20821;-71
2023/12/05 04:46:44;;;;;;;32.17;12.82;;;0.80;99.90;;;;;;4986485;28;20041;-71
2023/12/05 04:49:09;;;;;;;26.58;11.57;;;0.80;99.90;;;;;;4981750;28;20041;-70
2023/12/05 04:51:35;;;;;;;25.05;11.68;;;0.80;99.90;;;;;;4986837;28;20038;-71
2023/12/05 04:54:01;;;;;;;26.35;12.30;;;0.90;99.90;;;;;;4981920;28;20510;-71
2023/12/05 04:56:27;;;;;;;27.85;12.50;;;0.90;99.90;;;;;;4986942;28;20582;-70
2023/12/05 04:58:53;;;;;;;25.52;12.00;;;0.90;99.90;;;;;;4981686;28;20030;-71
2023/12/05 05:01:19;;;;;;;27.15;12.35;;;1.00;99.90;;;;;;4987042;28;20422;-71
2023/12/05 05:03:45;;;;;;;30.40;12.25;;;0.90;99.90;;;;;;4997851;28;20030;-71
2023/12/05 05:06:11;;;;;;;25.30;11.20;;;0.80;99.90;;;;;;4985618;28;20038;-70
2023/12/05 05:08:37;;;;;;;29.80;12.10;;;0.80;99.90;;;;;;4984923;28;20532;-70
2023/12/05 05:11:03;;;;;;;25.02;10.90;;;0.80;99.90;;;;;;4984878;28;20042;-70
2023/12/05 05:13:28;;;;;;;29.77;12.85;;;0.80;99.90;;;;;;4990248;28;20069;-71
2023/12/05 05:15:54;;;;;;;26.67;11.82;;;0.70;99.90;;;;;;4985827;28;20136;-71
2023/12/05 05:18:20;;;;;;;31.10;12.23;;;0.60;99.90;;;;;;4985355;28;20061;-71
2023/12/05 05:20:46;;;;;;;26.77;11.88;;;0.70;99.90;;;;;;4979444;28;20030;-70
2023/12/05 05:23:11;;;;;;;31.17;12.90;;;0.60;99.90;;;;;;4991200;28;20061;-71
2023/12/05 05:25:37;;;;;;;26.92;13.40;;;0.50;99.90;;;;;;4980961;28;20042;-71
2023/12/05 05:28:03;;;;;;;26.40;12.10;;;0.50;99.90;;;;;;4990071;28;20062;-71
2023/12/05 05:30:29;;;;;;;27.13;12.95;;;0.40;99.90;;;;;;4982318;28;20065;-71
2023/12/05 05:32:55;;;;;;;26.35;11.65;;;0.40;99.90;;;;;;4988044;28;20041;-71
2023/12/05 05:35:21;;;;;;;30.08;12.98;;;0.40;99.90;;;;;;4984730;28;20042;-71
2023/12/05 05:37:46;;;;;;;26.45;11.82;;;0.40;99.90;;;;;;4983450;28;20046;-71
2023/12/05 05:40:13;;;;;;;35.10;13.25;;;0.30;99.90;;;;;;4982049;28;20045;-71
2023/12/05 05:42:39;;;;;;;34.88;12.90;;;0.30;99.90;;;;;;4987477;28;20553;-71
2023/12/05 05:45:05;;;;;;;27.10;12.25;;;0.30;99.90;;;;;;4983108;28;20035;-71
2023/12/05 05:47:31;;;;;;;28.48;11.82;;;0.40;99.90;;;;;;4988963;28;20044;-70
2023/12/05 05:49:57;;;;;;;27.85;11.93;;;0.40;99.90;;;;;;4983357;28;20118;-70
2023/12/05 05:52:23;;;;;;;26.65;12.38;;;0.30;99.90;;;;;;4988675;28;20034;-71
2023/12/05 05:54:50;;;;;;;36.88;15.20;;;0.40;99.90;;;;;;4984050;28;20745;-70
2023/12/05 05:57:16;;;;;;;28.38;12.70;;;0.40;99.90;;;;;;4988952;28;20873;-70
2023/12/05 05:59:43;;;;;;;29.23;13.23;;;0.50;99.90;;;;;;4984849;28;20103;-70
2023/12/05 06:02:09;;;;;;;29.65;12.10;;;0.50;99.90;;;;;;4987265;28;20081;-71
2023/12/05 06:04:44;;;;;;;28.55;13.02;;;0.50;99.90;;;;;;4986560;28;20194;-70
2023/12/05 06:07:10;;;;;;;33.00;12.68;;;0.50;99.90;;;;;;4984935;28;20067;-70
2023/12/05 06:09:36;;;;;;;25.83;12.07;;;0.60;99.90;;;;;;4984021;28;20042;-70
2023/12/05 06:12:03;;;;;;;31.05;13.35;;;0.60;99.90;;;;;;4982181;28;20431;-70
2023/12/05 06:14:29;;;;;;;26.98;12.30;;;0.60;99.90;;;;;;4988509;28;20066;-70
2023/12/05 06:16:55;;;;;;;28.30;12.90;;;0.60;99.90;;;;;;4984114;28;20121;-70
2023/12/05 06:19:21;;;;;;;27.83;12.60;;;0.50;99.90;;;;;;4989175;28;20120;-70
2023/12/05 06:21:47;;;;;;;25.42;12.18;;;0.50;99.90;;;;;;4973755;28;20516;-70
2023/12/05 06:24:12;;;;;;;28.92;12.10;;;0.40;99.90;;;;;;4988610;28;20046;-70
2023/12/05 06:26:38;;;;;;;30.48;11.27;;;0.50;99.90;;;;;;4984959;28;20034;-71
2023/12/05 06:29:05;;;;;;;22.63;10.70;;;0.50;99.90;;;;;;4988025;28;20038;-70
2023/12/05 06:31:31;;;;;;;25.40;11.60;;;0.60;99.90;;;;;;4984046;28;20832;-70
2023/12/05 06:33:59;;;;;;;30.30;12.38;;;0.50;99.90;;;;;;4990754;28;20088;-68
2023/12/05 06:36:25;;;;;;;26.75;12.13;;;0.60;99.90;;;;;;4990299;28;20041;-69
2023/12/05 06:38:50;;;;;;;29.63;12.18;;;0.60;99.90;;;;;;4985917;28;20031;-69
2023/12/05 06:41:16;;;;;;;23.55;11.45;;;0.60;99.90;;;;;;4982309;28;20413;-69
2023/12/05 06:43:42;;;;;;;28.40;12.32;;;0.70;99.90;;;;;;4986292;28;20022;-69
2023/12/05 06:46:08;;;;;;;26.75;11.63;;;0.70;99.90;;;;;;4981445;28;20039;-69
2023/12/05 06:48:34;;;;;;;25.20;12.30;;;0.70;99.90;;;;;;4987101;28;20118;-69
2023/12/05 06:50:59;;;;;;;31.52;12.70;;;0.70;99.90;;;;;;4980432;28;20034;-69
2023/12/05 06:53:25;;;;;;;30.13;12.82;;;0.80;99.90;;;;;;4987460;28;20038;-69
2023/12/05 06:55:51;;;;;;;23.27;11.70;;;0.80;99.90;;;;;;4981766;28;20034;-69
2023/12/05 06:58:18;;;;;;;25.08;12.15;;;0.70;99.90;;;;;;4986608;28;20053;-70
2023/12/05 07:00:44;;;;;;;22.52;10.48;;;0.50;99.90;;;;;;4981997;28;20559;-70
2023/12/05 07:03:12;;;;;;;24.40;11.88;;;0.60;99.90;;;;;;4984452;28;20051;-69
2023/12/05 07:05:37;;;;;;;28.65;11.90;;;0.50;99.90;;;;;;4982172;28;20026;-69
2023/12/05 07:08:03;;;;;;;28.83;11.63;;;0.50;99.90;;;;;;4984339;28;20022;-69
2023/12/05 07:10:31;;;;;;;31.98;12.10;;;0.50;99.90;;;;;;4985975;28;20034;-68
2023/12/05 07:12:57;;;;;;;24.35;12.15;;;0.70;99.90;;;;;;4983041;28;20435;-69
2023/12/05 07:15:23;;;;;;;22.30;11.55;;;0.80;99.90;;;;;;4987123;28;20065;-70
2023/12/05 07:17:49;;;;;;;29.27;12.93;;;0.80;99.90;;;;;;4982910;28;20938;-70
2023/12/05 07:20:15;;;;;;;25.27;11.50;;;0.80;99.90;;;;;;4986978;28;20030;-68
2023/12/05 07:22:42;;;;;;;24.25;11.13;;;0.90;99.90;;;;;;4982992;28;20403;-69
2023/12/05 07:25:08;;;;;;;24.65;11.82;;;1.00;99.90;;;;;;4986258;28;20031;-70
2023/12/05 07:27:35;;;;;;;25.23;12.32;;;1.00;99.90;;;;;;4983214;28;20768;-69
2023/12/05 07:30:02;;;;;;;22.27;10.65;;;1.10;99.90;;;;;;4984517;28;20404;-69
2023/12/05 07:32:28;;;;;;;27.60;12.20;;;1.20;99.90;;;;;;4983112;28;20469;-68
2023/12/05 07:34:53;;;;;;;26.83;12.10;;;1.20;99.90;;;;;;4986149;28;20042;-68
2023/12/05 07:37:19;;;;;;;24.77;11.40;;;1.30;99.90;;;;;;4981294;28;20042;-69
2023/12/05 07:39:45;;;;;;;23.63;11.90;;;1.10;99.90;;;;;;4979887;28;20108;-68
2023/12/05 07:42:11;;;;;;;26.40;11.95;;;1.20;99.90;;;;;;4980750;28;20428;-69
2023/12/05 07:44:37;;;;;;;27.73;11.73;;;1.20;99.90;;;;;;4990259;28;20486;-69
2023/12/05 07:47:05;;;;;;;27.38;12.10;;;1.10;99.90;;;;;;4978885;28;20053;-70
2023/12/05 07:49:31;;;;;;;25.88;11.85;;;1.00;99.90;;;;;;4986582;28;20133;-70
2023/12/05 07:51:57;;;;;;;26.20;11.93;;;1.00;99.90;;;;;;4979321;28;20138;-69
2023/12/05 07:54:23;;;;;;;22.88;11.20;;;1.10;99.90;;;;;;4992005;28;20037;-69
2023/12/05 07:56:49;;;;;;;24.98;11.90;;;1.10;99.90;;;;;;4980212;28;20045;-70
2023/12/05 07:59:15;;;;;;;29.65;11.82;;;1.00;99.90;;;;;;4985181;28;20038;-66
2023/12/05 08:01:42;;;;;;;23.10;10.60;;;1.00;99.90;;;;;;4981037;28;20112;-69
2023/12/05 08:04:08;;;;;;;25.30;11.35;;;1.10;99.90;;;;;;4986482;28;20037;-69
2023/12/05 08:06:34;;;;;;;22.75;10.57;;;1.20;99.90;;;;;;4984504;28;20365;-72
2023/12/05 08:09:00;;;;;;;33.13;12.30;;;1.30;99.90;;;;;;4982698;28;20026;-73
2023/12/05 08:11:26;;;;;;;29.67;12.38;;;1.40;99.90;;;;;;4984343;28;20529;-73
2023/12/05 08:13:52;;;;;;;21.23;11.30;;;1.20;99.90;;;;;;4980836;28;20049;-72
2023/12/05 08:16:19;;;;;;;27.95;12.85;;;1.20;99.90;;;;;;4985980;28;20402;-69
2023/12/05 08:18:45;;;;;;;28.33;12.07;;;1.20;99.90;;;;;;4986518;28;20046;-69
2023/12/05 08:21:10;;;;;;;25.67;12.55;;;1.30;99.90;;;;;;4984557;28;20037;-69
2023/12/05 08:23:37;;;;;;;25.77;11.05;;;1.30;99.90;;;;;;4981850;28;20041;-75
2023/12/05 08:26:04;;;;;;;23.77;11.13;;;1.30;99.90;;;;;;4984615;28;20027;-69
2023/12/05 08:28:30;;;;;;;28.73;12.02;;;1.30;99.90;;;;;;4986313;28;20026;-69
2023/12/05 08:30:56;;;;;;;24.10;11.35;;;1.30;99.90;;;;;;4983812;28;20030;-71
2023/12/05 08:33:22;;;;;;;22.95;11.27;;;1.30;99.90;;;;;;4982952;28;20112;-70
2023/12/05 08:35:48;;;;;;;27.63;12.10;;;1.40;99.90;;;;;;4985141;28;20549;-70
2023/12/05 08:38:14;;;;;;;25.25;11.48;;;1.40;99.90;;;;;;4981544;28;20107;-71
2023/12/05 08:40:39;;;;;;;23.33;11.23;;;1.50;99.90;;;;;;4986738;28;20047;-70
2023/12/05 08:43:05;;;;;;;25.23;11.63;;;1.50;99.90;;;;;;4979299;28;20035;-71
2023/12/05 08:45:32;;;;;;;24.90;10.82;;;1.50;99.90;;;;;;4991481;28;20117;-71
2023/12/05 08:47:57;;;;;;;24.55;12.18;;;1.30;99.90;;;;;;4987414;28;20046;-70
2023/12/05 08:50:23;;;;;;;25.30;11.55;;;1.40;99.90;;;;;;4996493;28;20064;-70
2023/12/05 08:52:49;;;;;;;28.30;11.77;;;1.50;99.90;;;;;;4984812;28;20918;-70
2023/12/05 08:55:15;;;;;;;28.85;12.38;;;1.40;99.90;;;;;;4996786;28;20042;-70
2023/12/05 08:57:42;;;;;;;30.05;12.25;;;1.40;99.90;;;;;;4986205;28;20081;-69
2023/12/05 09:00:08;;;;;;;26.95;12.15;;;1.60;99.90;;;;;;4995833;28;20050;-69
2023/12/05 09:02:34;;;;;;;24.17;11.57;;;1.60;99.90;;;;;;4986954;28;20101;-70
2023/12/05 09:05:01;;;;;;;28.75;12.00;;;1.60;99.90;;;;;;4993378;28;20495;-69
2023/12/05 09:07:27;;;;;;;27.20;12.52;;;1.60;99.90;;;;;;4989297;28;20027;-69
2023/12/05 09:09:53;;;;;;;28.42;13.20;;;1.60;99.90;;;;;;4996156;28;20048;-69
2023/12/05 09:12:18;;;;;;;28.98;12.18;;;1.60;99.90;;;;;;4986466;28;20124;-69
2023/12/05 09:14:44;;;;;;;26.92;11.95;;;1.70;99.90;;;;;;4993480;28;20455;-69
2023/12/05 09:17:12;;;;;;;23.45;12.00;;;1.80;99.90;;;;;;4989432;28;20030;-69
2023/12/05 09:19:38;;;;;;;23.75;11.90;;;1.70;99.90;;;;;;4987043;28;20066;-69
2023/12/05 09:22:04;;;;;;;27.90;12.68;;;1.60;99.90;;;;;;4989293;28;20062;-70
2023/12/05 09:24:30;;;;;;;26.20;11.20;;;1.40;99.90;;;;;;4987111;28;20034;-69
2023/12/05 09:26:56;;;;;;;24.80;12.18;;;1.40;99.90;;;;;;4989102;28;20061;-69
2023/12/05 09:29:22;;;;;;;28.58;13.68;;;1.50;99.90;;;;;;4989508;28;20034;-69
2023/12/05 09:31:48;;;;;;;26.38;12.45;;;1.60;99.90;;;;;;4989925;28;20084;-67
2023/12/05 09:34:14;;;;;;;27.55;11.95;;;1.60;99.90;;;;;;4987205;28;20065;-69
2023/12/05 09:36:40;;;;;;;24.52;12.27;;;1.70;99.90;;;;;;4987196;28;20121;-70
2023/12/05 09:39:06;;;;;;;25.33;11.52;;;1.60;99.90;;;;;;4984800;28;20268;-70
2023/12/05 09:41:41;;;;;;;24.85;11.45;;;1.70;99.90;;;;;;4995499;28;20033;-69
2023/12/05 09:44:08;;;;;;;25.65;12.52;;;1.70;99.90;;;;;;4985470;28;20045;-69
2023/12/05 09:46:36;;;;;;;25.02;11.23;;;1.80;99.90;;;;;;4989140;28;20038;-70
2023/12/05 09:49:06;;;;;;;22.02;11.35;;;1.80;99.90;;;;;;4983029;28;20491;-70
2023/12/05 09:51:34;;;;;;;29.17;12.27;;;1.80;99.90;;;;;;4994039;28;20113;-70
2023/12/05 09:54:00;;;;;;;28.02;12.45;;;1.70;99.90;;;;;;4983404;28;20491;-68
2023/12/05 09:56:27;;;;;;;25.77;12.35;;;1.70;99.90;;;;;;4994124;28;20490;-70
2023/12/05 09:58:54;;;;;;;25.77;12.70;;;1.60;99.90;;;;;;4980262;28;20045;-70
2023/12/05 10:01:22;;;;;;;25.60;11.65;;;1.60;99.90;;;;;;4970003;28;20034;-71
2023/12/05 10:03:57;;;;;;;27.45;11.85;;;1.60;99.90;;;;;;4982259;28;20038;-71
2023/12/05 10:06:25;;;;;;;27.20;12.57;;;1.50;99.90;;;;;;4983884;28;20072;-71
2023/12/05 10:08:52;;;;;;;24.27;12.13;;;1.40;99.90;;;;;;4979272;28;20037;-70
2023/12/05 10:11:21;;;;;;;25.15;11.60;;;1.50;99.90;;;;;;4992810;28;20044;-71
2023/12/05 10:13:47;;;;;;;23.45;11.20;;;1.50;99.90;;;;;;4981334;28;20113;-68
2023/12/05 10:16:14;;;;;;;26.00;11.55;;;1.50;99.90;;;;;;4992176;28;20442;-72
2023/12/05 10:18:41;;;;;;;27.88;12.32;;;1.60;99.90;;;;;;4982782;28;20490;-71
2023/12/05 10:21:07;;;;;;;21.77;11.65;;;1.60;99.90;;;;;;4988386;28;20062;-72
2023/12/05 10:23:33;;;;;;;25.83;12.48;;;1.60;99.90;;;;;;4989818;28;20196;-69
2023/12/05 10:25:59;;;;;;;26.73;12.25;;;1.60;99.90;;;;;;4991040;28;20038;-69
2023/12/05 10:28:25;;;;;;;26.98;12.20;;;1.70;99.90;;;;;;4992526;28;20028;-70
2023/12/05 10:30:51;;;;;;;24.95;12.02;;;1.50;99.90;;;;;;4990840;28;20057;-70
2023/12/05 10:33:21;;;;;;;27.77;13.07;;;1.40;99.90;;;;;;4985930;28;20042;-70
2023/12/05 10:35:48;;;;;;;29.52;12.70;;;1.40;99.90;;;;;;4982291;28;20030;-69
2023/12/05 10:38:17;;;;;;;30.48;13.00;;;1.40;99.90;;;;;;4985277;28;20035;-68
2023/12/05 10:40:49;;;;;;;27.60;12.63;;;1.40;99.90;;;;;;4982826;28;20034;-70
2023/12/05 10:43:16;;;;;;;26.90;13.05;;;1.50;99.90;;;;;;4985942;28;20052;-70
2023/12/05 10:45:42;;;;;;;25.90;12.40;;;1.50;99.90;;;;;;4983247;28;20031;-70
2023/12/05 10:48:11;;;;;;;23.08;11.50;;;1.50;99.90;;;;;;4985736;28;20034;-70
2023/12/05 10:50:44;;;;;;;26.10;12.43;;;1.60;99.90;;;;;;4982860;28;20041;-69
2023/12/05 10:53:10;;;;;;;24.33;11.15;;;1.80;99.90;;;;;;4985005;28;20404;-69
2023/12/05 10:55:36;;;;;;;24.33;11.40;;;1.70;99.90;;;;;;4983216;28;20041;-69
2023/12/05 10:58:02;;;;;;;25.67;11.27;;;1.80;99.90;;;;;;4987038;28;20041;-69
2023/12/05 11:00:29;;;;;;;25.83;12.55;;;2.00;99.90;;;;;;4982576;28;20042;-69
2023/12/05 11:02:56;;;;;;;29.15;13.30;;;2.00;99.90;;;;;;4984866;28;20033;-69
2023/12/05 11:05:22;;;;;;;25.92;12.02;;;2.10;99.90;;;;;;4984216;28;20040;-70
2023/12/05 11:07:48;;;;;;;22.35;11.93;;;2.20;99.90;;;;;;4986646;28;20165;-68
2023/12/05 11:10:16;;;;;;;24.88;12.52;;;2.10;99.90;;;;;;4983015;28;20379;-69
2023/12/05 11:12:49;;;;;;;31.77;13.55;;;2.30;99.90;;;;;;4986897;28;20092;-69
2023/12/05 11:15:18;;;;;;;28.60;13.05;;;2.40;99.90;;;;;;4982716;28;20030;-69
2023/12/05 11:17:53;;;;;;;23.98;12.15;;;2.40;99.90;;;;;;4987263;28;20372;-68
2023/12/05 11:20:31;;;;;;;25.00;12.93;;;2.40;99.90;;;;;;4984010;28;20111;-69
2023/12/05 11:23:07;;;;;;;25.35;12.43;;;2.40;99.90;;;;;;4983875;28;20058;-69
2023/12/05 11:25:39;;;;;;;27.10;12.32;;;2.40;99.90;;;;;;4983226;28;20057;-70
2023/12/05 11:28:29;;;;;;;28.42;12.80;;;2.40;99.90;;;;;;4986919;28;20089;-69
2023/12/05 11:31:26;;;;;;;26.15;11.05;;;2.30;99.90;;;;;;4985102;28;20042;-70
2023/12/05 11:34:01;;;;;;;28.65;13.20;;;2.50;99.90;;;;;;4982015;28;20034;-69
2023/12/05 11:36:42;;;;;;;23.67;12.52;;;2.40;99.90;;;;;;4987892;28;20137;-66
2023/12/05 11:39:09;;;;;;;30.98;13.05;;;2.30;99.90;;;;;;4981813;28;20131;-69
2023/12/05 11:41:35;;;;;;;26.60;13.27;;;2.20;99.90;;;;;;4982058;28;20499;-72
2023/12/05 11:44:12;;;;;;;26.17;12.25;;;2.20;99.90;;;;;;4985058;28;20035;-69
2023/12/05 11:46:47;;;;;;;22.95;12.00;;;2.20;99.90;;;;;;4987790;28;20034;-69
2023/12/05 11:49:41;;;;;;;25.38;12.18;;;2.30;99.90;;;;;;4984237;28;20038;-69
2023/12/05 11:52:09;;;;;;;25.27;12.13;;;2.30;99.90;;;;;;4989162;28;20038;-69
2023/12/05 11:54:36;;;;;;;23.98;11.38;;;2.30;99.90;;;;;;4982095;28;20038;-69
2023/12/05 11:57:13;;;;;;;22.48;11.30;;;2.30;99.90;;;;;;4983956;28;20038;-69
2023/12/05 11:59:44;;;;;;;21.35;10.50;;;2.30;99.90;;;;;;4979823;28;20569;-69
2023/12/05 12:02:16;;;;;;;27.10;11.82;;;2.40;99.90;;;;;;4983888;28;20514;-68
2023/12/05 12:04:44;;;;;;;20.13;10.77;;;2.40;99.90;;;;;;4980396;28;20034;-69
2023/12/05 12:07:10;;;;;;;22.48;11.82;;;2.30;99.90;;;;;;4980942;28;20031;-69
2023/12/05 12:09:38;;;;;;;22.08;10.80;;;2.30;99.90;;;;;;4982741;28;20038;-69
2023/12/05 12:12:05;;;;;;;26.30;12.63;;;2.30;99.90;;;;;;4982349;28;20482;-68
2023/12/05 12:14:31;;;;;;;26.77;12.10;;;2.40;99.90;;;;;;4983226;28;20085;-68
2023/12/05 12:16:59;;;;;;;24.48;11.48;;;2.50;99.90;;;;;;4979233;28;20042;-67
2023/12/05 12:19:25;;;;;;;23.17;11.45;;;2.50;99.90;;;;;;4984770;28;20043;-67
2023/12/05 12:21:51;;;;;;;26.40;12.27;;;2.60;99.90;;;;;;4979754;28;20402;-67
2023/12/05 12:24:21;;;;;;;23.25;11.57;;;2.50;99.90;;;;;;4988343;28;20034;-67
2023/12/05 12:26:57;;;;;;;21.58;10.23;;;2.50;99.90;;;;;;4981993;28;20037;-69
2023/12/05 12:29:24;;;;;;;24.52;11.15;;;2.50;99.90;;;;;;4982601;28;20861;-68
2023/12/05 12:31:52;;;;;;;23.30;11.43;;;2.50;99.90;;;;;;4982863;28;20047;-69
2023/12/05 12:34:26;;;;;;;27.55;12.32;;;2.60;99.90;;;;;;4991606;28;20025;-69
2023/12/05 12:36:53;;;;;;;24.15;10.88;;;2.70;99.90;;;;;;4980833;28;20042;-68